KCNK/CNK METAR and TAF weather

Enter ICAO airport designator
Station Type Date Time Source
KCNK METAR 2024/04/18 05:55 UTC NOAA

KCNK 180555Z AUTO 09016G25KT 10SM BKN050 OVC060 16/08 A2979 RMK AO2 PK WND 07031/0510 SLP079 T01610083 10256 20161 402670122 58013


Station Type Date Time Source
KCNK Decoded METAR 2024/04/18 05:55 UTC NOAA

Concordia, Blosser Municipal Airport, KS, United States (KCNK) 39-33-05N 097-39-02W 447M
Apr 18, 2024 - 01:55 AM EDT / 2024.04.18 0555 UTC
Wind: from the E (090 degrees) at 18 MPH (16 KT) gusting to 29 MPH (25 KT):0
Visibility: 10 mile(s):0
Sky conditions: overcast
Temperature: 61.0 F (16.1 C)
Dew Point: 46.9 F (8.3 C)
Relative Humidity: 59%
Pressure (altimeter): 29.79 in. Hg (1008 hPa)
Pressure tendency: 0.04 inches (1.3 hPa) lower than three hours ago
ob: KCNK 180555Z AUTO 09016G25KT 10SM BKN050 OVC060 16/08 A2979 RMK AO2 PK WND 07031/0510 SLP079 T01610083 10256 20161 402670122 58013
cycle: 6

Station Type Date Time Source
KCNK TAF UTC NOAA

Error!

Example: see airport list